Time;durP1;ratioP1;P1;durP2;ratioP2;P2;SDS_P1;SDS_P2;PMS_P1;PMS_P2;Temp;Humidity;BMP_temperature;BMP_pressure;BME280_temperature;BME280_humidity;BME280_pressure;Samples;Min_cycle;Max_cycle;Signal;HPM_P1;HPM_P2
2021/03/18 00:02:10;;;;;;;2.13;1.75;;;23.70;43.40;;;;;;5071685;28;20052;-38
2021/03/18 00:04:37;;;;;;;2.35;2.08;;;23.70;43.40;;;;;;5070378;28;20099;-38
2021/03/18 00:07:04;;;;;;;1.77;1.65;;;23.70;43.40;;;;;;5069538;28;20037;-38
2021/03/18 00:09:31;;;;;;;2.65;1.83;;;23.70;43.40;;;;;;5071984;28;20412;-38
2021/03/18 00:11:58;;;;;;;2.70;2.08;;;23.70;43.30;;;;;;5071524;28;20048;-38
2021/03/18 00:14:25;;;;;;;2.20;1.95;;;23.70;43.30;;;;;;5070066;28;20056;-38
2021/03/18 00:16:51;;;;;;;2.17;1.75;;;23.70;43.40;;;;;;5071519;28;20049;-39
2021/03/18 00:19:20;;;;;;;2.83;2.08;;;23.70;43.40;;;;;;5070511;28;20416;-38
2021/03/18 00:21:47;;;;;;;1.63;1.52;;;23.70;43.40;;;;;;5070977;28;20052;-38
2021/03/18 00:24:15;;;;;;;2.67;2.15;;;23.70;43.40;;;;;;5071380;28;20068;-38
2021/03/18 00:26:41;;;;;;;2.53;2.00;;;23.70;44.00;;;;;;5069991;28;20048;-38
2021/03/18 00:29:08;;;;;;;2.97;2.15;;;23.70;43.40;;;;;;5071254;28;20098;-38
2021/03/18 00:31:52;;;;;;;;;;;23.70;43.40;;;;;;5071362;28;20044;-38
2021/03/18 00:34:19;;;;;;;2.05;1.73;;;23.70;43.40;;;;;;5071074;28;19928;-38
2021/03/18 00:36:46;;;;;;;2.13;1.80;;;23.60;43.30;;;;;;5069977;28;20048;-38
2021/03/18 00:39:12;;;;;;;2.20;2.00;;;23.60;43.30;;;;;;5071637;28;20076;-38
2021/03/18 00:41:39;;;;;;;2.17;1.90;;;23.60;43.30;;;;;;5070021;28;20496;-38
2021/03/18 00:44:06;;;;;;;2.00;1.70;;;23.70;43.40;;;;;;5075218;28;20049;-38
2021/03/18 00:46:33;;;;;;;2.22;1.75;;;23.60;43.90;;;;;;5075022;28;20047;-38
2021/03/18 00:49:00;;;;;;;2.40;1.70;;;23.70;43.40;;;;;;5076153;28;20123;-38
2021/03/18 00:51:26;;;;;;;1.98;1.75;;;23.60;43.30;;;;;;5074449;28;20044;-38
2021/03/18 00:53:53;;;;;;;2.40;2.05;;;23.70;43.40;;;;;;5076143;28;20045;-38
2021/03/18 00:56:22;;;;;;;1.98;1.77;;;23.60;43.30;;;;;;5074544;28;20121;-38
2021/03/18 00:58:49;;;;;;;2.30;1.85;;;23.60;43.30;;;;;;5075948;28;20044;-38
2021/03/18 01:01:21;;;;;;;2.28;1.65;;;23.60;43.30;;;;;;5073192;28;20045;-38
2021/03/18 01:03:48;;;;;;;2.75;2.00;;;23.70;43.40;;;;;;5073412;28;20543;-38
2021/03/18 01:06:27;;;;;;;3.05;1.98;;;23.60;43.30;;;;;;5075863;28;20399;-38
2021/03/18 01:08:55;;;;;;;1.85;1.60;;;23.60;43.30;;;;;;5075506;28;20046;-38
2021/03/18 01:11:25;;;;;;;2.17;1.80;;;23.60;43.30;;;;;;5072695;28;20045;-38
2021/03/18 01:13:56;;;;;;;2.95;2.05;;;23.60;43.30;;;;;;5073547;28;20055;-39
2021/03/18 01:16:25;;;;;;;2.53;1.67;;;23.60;43.30;;;;;;5073361;28;20060;-38
2021/03/18 01:18:58;;;;;;;2.00;1.70;;;23.60;43.30;;;;;;5074635;28;20059;-38
2021/03/18 01:21:56;;;;;;;1.98;1.60;;;23.60;43.30;;;;;;5074547;28;20135;-38
2021/03/18 01:24:23;;;;;;;2.47;1.90;;;23.60;43.30;;;;;;5031891;28;20144;-38
2021/03/18 01:26:50;;;;;;;1.95;1.75;;;23.60;43.30;;;;;;5032972;28;20061;-38
2021/03/18 01:29:17;;;;;;;2.33;1.75;;;23.60;43.30;;;;;;5032098;28;20176;-38
2021/03/18 01:31:44;;;;;;;2.22;1.70;;;23.60;43.30;;;;;;5030249;28;20064;-38
2021/03/18 01:34:11;;;;;;;2.67;1.90;;;23.60;43.30;;;;;;5031766;28;20041;-38
2021/03/18 01:36:38;;;;;;;2.55;2.22;;;23.60;43.30;;;;;;5031998;28;20365;-38
2021/03/18 01:39:07;;;;;;;2.45;1.95;;;23.60;43.30;;;;;;5030709;28;20072;-38
2021/03/18 01:41:35;;;;;;;2.60;1.85;;;23.60;43.30;;;;;;5031679;28;20053;-38
2021/03/18 01:44:03;;;;;;;2.08;1.77;;;23.60;43.30;;;;;;5033148;28;20080;-38
2021/03/18 01:46:30;;;;;;;1.98;1.45;;;23.60;43.30;;;;;;5030853;28;20052;-38
2021/03/18 01:48:57;;;;;;;2.33;1.60;;;23.60;43.30;;;;;;5030954;28;20085;-38
2021/03/18 01:51:24;;;;;;;2.40;1.85;;;23.60;43.30;;;;;;5031655;28;20052;-38
2021/03/18 01:53:51;;;;;;;1.90;1.60;;;23.60;43.30;;;;;;5029445;28;20053;-39
2021/03/18 01:56:18;;;;;;;2.67;1.90;;;23.60;43.30;;;;;;5030327;28;20524;-38
2021/03/18 01:58:46;;;;;;;2.53;1.90;;;23.50;43.20;;;;;;5030218;28;20050;-38
2021/03/18 02:01:14;;;;;;;1.65;1.38;;;23.50;43.20;;;;;;5024878;28;20041;-38
2021/03/18 02:03:41;;;;;;;1.85;1.52;;;23.60;43.30;;;;;;5032318;28;20050;-38
2021/03/18 02:06:08;;;;;;;1.90;1.70;;;23.60;43.30;;;;;;5034958;28;20069;-38
2021/03/18 02:08:35;;;;;;;2.20;1.60;;;23.50;43.20;;;;;;5033845;28;20072;-38
2021/03/18 02:11:03;;;;;;;2.13;1.77;;;23.50;43.20;;;;;;5034265;28;20091;-38
2021/03/18 02:13:30;;;;;;;2.35;1.60;;;23.50;43.20;;;;;;5031704;28;20099;-38
2021/03/18 02:16:03;;;;;;;1.92;1.50;;;23.50;43.20;;;;;;5032351;28;20049;-38
2021/03/18 02:19:07;;;;;;;2.00;1.63;;;23.50;43.20;;;;;;5031216;28;20056;-38
2021/03/18 02:21:36;;;;;;;2.57;1.80;;;23.50;43.20;;;;;;5032270;28;20099;-38
2021/03/18 02:24:10;;;;;;;1.70;1.42;;;23.50;43.20;;;;;;5032235;28;20441;-38
2021/03/18 02:26:58;;;;;;;2.17;1.75;;;23.50;43.20;;;;;;5036274;28;20494;-38
2021/03/18 02:29:56;;;;;;;1.80;1.60;;;23.50;43.20;;;;;;5072296;28;20395;-38
2021/03/18 02:32:55;;;;;;;2.85;1.80;;;23.50;43.20;;;;;;5071269;28;20048;-38
2021/03/18 02:35:27;;;;;;;2.35;1.83;;;23.50;43.30;;;;;;5072365;28;20050;-38
2021/03/18 02:38:10;;;;;;;2.03;1.65;;;23.50;43.30;;;;;;5073623;28;20044;-38
2021/03/18 02:40:47;;;;;;;2.10;1.63;;;23.50;43.30;;;;;;5072140;28;20053;-39
2021/03/18 02:43:17;;;;;;;2.22;1.80;;;23.50;43.30;;;;;;5072579;28;20056;-38
2021/03/18 02:45:51;;;;;;;1.73;1.52;;;23.50;43.30;;;;;;5072434;28;20386;-38
2021/03/18 02:48:34;;;;;;;1.80;1.45;;;23.50;43.30;;;;;;5071483;28;20553;-38
2021/03/18 02:51:05;;;;;;;1.67;1.50;;;23.50;43.30;;;;;;5072339;28;20101;-38
2021/03/18 02:53:34;;;;;;;1.40;1.30;;;23.50;43.30;;;;;;5071228;28;20040;-38
2021/03/18 02:56:07;;;;;;;2.45;1.67;;;23.50;43.20;;;;;;5071324;28;20040;-38
2021/03/18 02:58:37;;;;;;;2.08;1.50;;;23.50;43.30;;;;;;5071663;28;20049;-38
2021/03/18 03:01:05;;;;;;;1.70;1.45;;;23.50;43.20;;;;;;5071673;28;20043;-38
2021/03/18 03:03:44;;;;;;;1.85;1.30;;;23.50;43.30;;;;;;5072493;28;20040;-38
2021/03/18 03:06:13;;;;;;;1.73;1.40;;;23.50;43.30;;;;;;5071085;28;20097;-38
2021/03/18 03:08:41;;;;;;;1.95;1.48;;;23.50;43.20;;;;;;5072229;28;20044;-38
2021/03/18 03:11:08;;;;;;;1.63;1.42;;;23.50;43.20;;;;;;5072355;28;20041;-38
2021/03/18 03:13:40;;;;;;;1.90;1.42;;;23.50;43.20;;;;;;5071231;28;20044;-39
2021/03/18 03:16:16;;;;;;;1.67;1.30;;;23.50;43.20;;;;;;5072416;28;20036;-38
2021/03/18 03:18:45;;;;;;;1.90;1.60;;;23.50;43.20;;;;;;5087141;28;20139;-38
2021/03/18 03:21:14;;;;;;;1.88;1.50;;;23.50;43.20;;;;;;5072139;28;20049;-38
2021/03/18 03:23:43;;;;;;;2.20;1.60;;;23.50;43.30;;;;;;5071061;28;20056;-38
2021/03/18 03:26:10;;;;;;;1.80;1.50;;;23.50;43.20;;;;;;5072335;28;20443;-38
2021/03/18 03:28:38;;;;;;;2.05;1.40;;;23.50;43.20;;;;;;5070369;28;20048;-39
2021/03/18 03:31:05;;;;;;;1.98;1.60;;;23.50;43.20;;;;;;5071087;28;20404;-38
2021/03/18 03:33:32;;;;;;;2.05;1.55;;;23.40;43.20;;;;;;5070548;28;20048;-38
2021/03/18 03:35:59;;;;;;;1.98;1.50;;;23.50;43.20;;;;;;5071774;28;20127;-38
2021/03/18 03:38:26;;;;;;;1.60;1.45;;;23.40;43.10;;;;;;5070541;28;20554;-38
2021/03/18 03:40:53;;;;;;;1.95;1.58;;;23.50;43.20;;;;;;5071470;28;20049;-38
2021/03/18 03:43:20;;;;;;;1.67;1.55;;;23.40;43.10;;;;;;5070285;28;20427;-38
2021/03/18 03:45:49;;;;;;;1.35;1.23;;;23.50;43.20;;;;;;5070683;28;20047;-38
2021/03/18 03:48:16;;;;;;;1.70;1.60;;;23.40;43.20;;;;;;5071015;28;20159;-38
2021/03/18 03:50:43;;;;;;;1.95;1.55;;;23.40;43.20;;;;;;5071350;28;20048;-39
2021/03/18 03:53:22;;;;;;;1.38;1.27;;;23.40;43.20;;;;;;5070606;28;20040;-38
2021/03/18 03:56:15;;;;;;;1.75;1.23;;;23.40;43.20;;;;;;5071475;28;20049;-39
2021/03/18 03:59:03;;;;;;;1.30;1.20;;;23.40;43.20;;;;;;5065754;28;20045;-39
2021/03/18 04:01:56;;;;;;;1.52;1.30;;;23.40;43.20;;;;;;5070889;28;20040;-38
2021/03/18 04:04:33;;;;;;;1.33;1.20;;;23.50;43.20;;;;;;5070854;28;20068;-38
2021/03/18 04:07:02;;;;;;;;;;;23.40;43.20;;;;;;5071205;28;20062;-38
2021/03/18 04:09:29;;;;;;;2.00;1.60;;;23.40;43.20;;;;;;5070779;28;19920;-38
2021/03/18 04:11:59;;;;;;;1.67;1.50;;;23.40;43.50;;;;;;5070232;28;20524;-38
2021/03/18 04:14:33;;;;;;;1.52;1.30;;;23.40;43.20;;;;;;5070142;28;20052;-38
2021/03/18 04:17:09;;;;;;;1.30;1.20;;;23.40;43.20;;;;;;5071901;28;20059;-38
2021/03/18 04:19:37;;;;;;;1.75;1.45;;;23.40;43.20;;;;;;5075850;28;20080;-38
2021/03/18 04:22:06;;;;;;;2.33;1.80;;;23.40;43.20;;;;;;5076947;28;20102;-38
2021/03/18 04:24:35;;;;;;;1.70;1.23;;;23.40;43.20;;;;;;5075069;28;20411;-38
2021/03/18 04:27:03;;;;;;;1.73;1.40;;;23.40;43.20;;;;;;5075628;28;20192;-38
2021/03/18 04:29:32;;;;;;;1.50;1.27;;;23.40;43.20;;;;;;5075575;28;20074;-38
2021/03/18 04:32:01;;;;;;;1.70;1.20;;;23.40;43.20;;;;;;5073050;28;20119;-38
2021/03/18 04:34:49;;;;;;;1.60;1.33;;;23.40;43.20;;;;;;5076390;28;20048;-38
2021/03/18 04:37:16;;;;;;;1.40;1.30;;;23.40;43.20;;;;;;5074493;28;20045;-39
2021/03/18 04:39:43;;;;;;;1.80;1.30;;;23.40;43.20;;;;;;5074161;28;20614;-39
2021/03/18 04:42:11;;;;;;;1.65;1.40;;;23.40;43.20;;;;;;5075748;28;20049;-38
2021/03/18 04:44:38;;;;;;;1.20;1.08;;;23.40;43.20;;;;;;5075322;28;20049;-39
2021/03/18 04:47:05;;;;;;;1.73;1.35;;;23.40;43.20;;;;;;5075203;28;20047;-38
2021/03/18 04:49:32;;;;;;;1.52;1.27;;;23.40;43.20;;;;;;5074996;28;20435;-38
2021/03/18 04:51:59;;;;;;;1.75;1.20;;;23.40;43.20;;;;;;5074969;28;20040;-39
2021/03/18 04:54:26;;;;;;;1.52;1.15;;;23.40;43.10;;;;;;5075107;28;20054;-39
2021/03/18 04:56:54;;;;;;;1.58;1.30;;;23.30;43.10;;;;;;5074928;28;20123;-38
2021/03/18 04:59:21;;;;;;;1.60;1.40;;;23.40;43.10;;;;;;5074415;28;20041;-38
2021/03/18 05:01:51;;;;;;;1.88;1.40;;;23.40;43.20;;;;;;5075173;28;20098;-38
2021/03/18 05:04:20;;;;;;;1.80;1.38;;;23.30;43.00;;;;;;5075926;28;20511;-38
2021/03/18 05:06:52;;;;;;;1.88;1.40;;;23.40;43.10;;;;;;5072657;28;20078;-38
2021/03/18 05:09:23;;;;;;;1.85;1.45;;;23.40;43.20;;;;;;5075604;28;20045;-38
2021/03/18 05:11:54;;;;;;;1.60;1.40;;;23.30;43.00;;;;;;5074131;28;20050;-38
2021/03/18 05:14:22;;;;;;;2.13;1.30;;;23.40;43.10;;;;;;5073613;28;20058;-38
2021/03/18 05:16:51;;;;;;;1.83;1.35;;;23.30;43.10;;;;;;5073556;28;20403;-38
2021/03/18 05:19:18;;;;;;;1.55;1.35;;;23.30;43.00;;;;;;5075953;28;20076;-38
2021/03/18 05:21:47;;;;;;;1.73;1.30;;;23.40;43.10;;;;;;5074093;28;20079;-38
2021/03/18 05:24:14;;;;;;;1.30;1.05;;;23.40;43.20;;;;;;5074064;28;20093;-38
2021/03/18 05:26:42;;;;;;;1.80;1.38;;;23.30;43.10;;;;;;5072822;28;20094;-38
2021/03/18 05:29:11;;;;;;;1.90;1.52;;;23.40;43.10;;;;;;5072864;28;20075;-38
2021/03/18 05:31:38;;;;;;;2.33;1.48;;;23.30;43.10;;;;;;5072533;28;20044;-38
2021/03/18 05:34:05;;;;;;;1.52;1.30;;;23.30;43.10;;;;;;5072755;28;20490;-38
2021/03/18 05:36:32;;;;;;;1.77;1.40;;;23.30;43.10;;;;;;5072901;28;20044;-38
2021/03/18 05:39:00;;;;;;;1.50;1.27;;;23.30;43.10;;;;;;5074258;28;20045;-38
2021/03/18 05:41:27;;;;;;;1.65;1.20;;;23.40;43.10;;;;;;5074120;28;20053;-38
2021/03/18 05:43:54;;;;;;;1.85;1.10;;;23.30;43.00;;;;;;5073985;28;20068;-38
2021/03/18 05:46:21;;;;;;;1.27;1.17;;;23.40;43.10;;;;;;5072675;28;20040;-38
2021/03/18 05:48:47;;;;;;;1.77;1.38;;;23.40;43.20;;;;;;5073798;28;20076;-38
2021/03/18 05:51:16;;;;;;;1.80;1.30;;;23.30;43.00;;;;;;5073001;28;20049;-38
2021/03/18 05:53:48;;;;;;;1.75;1.27;;;23.40;43.10;;;;;;5074414;28;20114;-38
2021/03/18 05:56:20;;;;;;;1.45;1.30;;;23.40;43.20;;;;;;5075116;28;20122;-38
2021/03/18 05:58:48;;;;;;;1.85;1.20;;;23.30;43.00;;;;;;5073372;28;20098;-38
2021/03/18 06:01:17;;;;;;;1.40;1.30;;;23.30;43.00;;;;;;5073252;28;20036;-38
2021/03/18 06:03:44;;;;;;;1.58;1.38;;;23.30;43.00;;;;;;5072019;28;20068;-39
2021/03/18 06:06:12;;;;;;;1.50;1.27;;;23.30;43.00;;;;;;5072713;28;20044;-36
2021/03/18 06:08:41;;;;;;;1.63;1.30;;;23.30;43.00;;;;;;5073423;28;20408;-38
2021/03/18 06:11:10;;;;;;;1.40;1.10;;;23.30;43.00;;;;;;5074056;28;20451;-38
2021/03/18 06:13:38;;;;;;;1.67;1.27;;;23.30;43.00;;;;;;5072326;28;20058;-38
2021/03/18 06:16:07;;;;;;;1.55;1.10;;;23.40;43.10;;;;;;5073381;28;20416;-38
2021/03/18 06:18:36;;;;;;;1.33;1.00;;;23.30;43.00;;;;;;5074602;28;20194;-39
2021/03/18 06:21:04;;;;;;;1.30;1.20;;;23.40;43.10;;;;;;5073372;28;20040;-38
2021/03/18 06:23:32;;;;;;;1.38;1.10;;;23.30;43.00;;;;;;5074378;28;20053;-38
2021/03/18 06:26:03;;;;;;;1.40;1.15;;;23.30;43.00;;;;;;5074801;28;20044;-38
2021/03/18 06:28:33;;;;;;;1.10;0.93;;;23.40;43.10;;;;;;5071648;28;20449;-38
2021/03/18 06:31:15;;;;;;;1.38;1.00;;;23.30;43.00;;;;;;5070870;28;20047;-39
2021/03/18 06:33:44;;;;;;;1.42;1.10;;;23.40;43.10;;;;;;5070824;28;20432;-38
2021/03/18 06:36:30;;;;;;;1.20;1.10;;;23.40;43.10;;;;;;5071832;28;20463;-38
2021/03/18 06:39:06;;;;;;;1.73;1.45;;;23.30;43.00;;;;;;5071510;28;20052;-38
2021/03/18 06:41:39;;;;;;;1.40;1.20;;;23.40;43.10;;;;;;5072394;28;20037;-38
2021/03/18 06:44:24;;;;;;;1.65;1.13;;;23.30;43.00;;;;;;5074319;28;20048;-38
2021/03/18 06:46:52;;;;;;;1.27;1.17;;;23.30;43.00;;;;;;5057712;28;20400;-38
2021/03/18 06:49:21;;;;;;;1.45;1.13;;;23.40;43.00;;;;;;5055869;28;20438;-39
2021/03/18 06:52:09;;;;;;;1.75;1.27;;;23.40;43.00;;;;;;5072732;28;20416;-39
2021/03/18 06:54:43;;;;;;;1.80;1.00;;;23.30;42.90;;;;;;5071535;28;20487;-38
2021/03/18 06:57:17;;;;;;;3.00;1.20;;;23.30;42.90;;;;;;5072121;28;20048;-38
2021/03/18 06:59:44;;;;;;;1.67;1.27;;;23.30;42.90;;;;;;5069786;28;20056;-38
2021/03/18 07:02:13;;;;;;;2.03;1.10;;;23.40;43.00;;;;;;5071261;28;20051;-41
2021/03/18 07:04:49;;;;;;;1.63;1.20;;;23.40;43.00;;;;;;5071086;28;20545;-39
2021/03/18 07:07:19;;;;;;;1.40;1.20;;;23.40;43.00;;;;;;5072457;28;20047;-39
2021/03/18 07:09:49;;;;;;;1.50;1.30;;;23.40;43.00;;;;;;5071031;28;20054;-39
2021/03/18 07:12:19;;;;;;;2.33;1.27;;;23.40;43.00;;;;;;5072335;28;20044;-39
2021/03/18 07:14:48;;;;;;;3.05;1.02;;;23.40;43.00;;;;;;5073620;28;20052;-38
2021/03/18 07:17:22;;;;;;;1.10;1.00;;;23.40;43.00;;;;;;5070832;28;20139;-39
2021/03/18 07:19:48;;;;;;;2.25;1.38;;;23.40;43.00;;;;;;5070738;28;20102;-39
2021/03/18 07:22:18;;;;;;;1.42;1.05;;;23.40;43.00;;;;;;5072893;28;20048;-38
2021/03/18 07:24:52;;;;;;;1.48;1.10;;;23.40;42.90;;;;;;5070540;28;20044;-38
2021/03/18 07:27:19;;;;;;;0.98;0.90;;;23.40;42.90;;;;;;5070309;28;20057;-38
2021/03/18 07:29:48;;;;;;;1.10;0.88;;;23.40;42.90;;;;;;5070763;28;20050;-38
2021/03/18 07:32:16;;;;;;;1.40;1.00;;;23.40;42.90;;;;;;5070482;28;20044;-38
2021/03/18 07:34:44;;;;;;;1.20;1.00;;;23.40;42.90;;;;;;5072005;28;20052;-38
2021/03/18 07:37:12;;;;;;;1.42;1.20;;;23.40;42.90;;;;;;5072237;28;20419;-38
2021/03/18 07:39:41;;;;;;;1.60;0.93;;;23.40;42.90;;;;;;5071828;28;20044;-38
2021/03/18 07:42:09;;;;;;;1.67;1.02;;;23.40;42.90;;;;;;5070554;28;20056;-38
2021/03/18 07:44:37;;;;;;;1.52;1.10;;;23.40;42.90;;;;;;5071596;28;20052;-39
2021/03/18 07:47:04;;;;;;;1.58;1.17;;;23.40;42.80;;;;;;5070309;28;20102;-38
2021/03/18 07:49:47;;;;;;;1.92;1.20;;;23.50;42.90;;;;;;5069954;28;20094;-38
2021/03/18 07:52:26;;;;;;;1.80;1.30;;;23.40;42.80;;;;;;5070732;28;20416;-39
2021/03/18 07:54:55;;;;;;;1.33;1.00;;;23.40;42.80;;;;;;5069166;28;20052;-40
2021/03/18 07:57:23;;;;;;;1.20;1.10;;;23.50;42.90;;;;;;5070375;28;20109;-39
2021/03/18 07:59:50;;;;;;;1.17;0.93;;;23.40;42.80;;;;;;5069979;28;20049;-41
2021/03/18 08:02:21;;;;;;;1.33;1.02;;;23.40;42.80;;;;;;5071763;28;20051;-38
2021/03/18 08:04:51;;;;;;;1.33;1.00;;;23.40;42.80;;;;;;5071366;28;20049;-41
2021/03/18 08:07:48;;;;;;;1.40;1.20;;;23.50;42.90;;;;;;5072216;28;20417;-38
2021/03/18 08:10:21;;;;;;;1.45;1.10;;;23.50;42.90;;;;;;5070814;28;20044;-38
2021/03/18 08:12:53;;;;;;;1.42;1.10;;;23.40;42.80;;;;;;5072610;28;20048;-39
2021/03/18 08:15:30;;;;;;;1.27;1.02;;;23.50;42.90;;;;;;5071496;28;20386;-38
2021/03/18 08:18:23;;;;;;;1.52;1.08;;;23.50;42.80;;;;;;5070163;28;20048;-38
2021/03/18 08:20:50;;;;;;;1.25;0.98;;;23.40;42.70;;;;;;5070915;28;20110;-38
2021/03/18 08:23:23;;;;;;;1.27;1.10;;;23.50;42.80;;;;;;5072023;28;20059;-38
2021/03/18 08:25:58;;;;;;;1.30;0.90;;;23.50;42.80;;;;;;5069078;28;20059;-38
2021/03/18 08:28:45;;;;;;;1.52;1.20;;;23.50;42.80;;;;;;5071255;28;20048;-38
2021/03/18 08:31:21;;;;;;;1.23;1.10;;;23.50;42.80;;;;;;5068288;28;20511;-38
2021/03/18 08:33:50;;;;;;;1.55;1.25;;;23.50;42.80;;;;;;5070630;28;20123;-39
2021/03/18 08:36:35;;;;;;;5.47;1.13;;;23.50;42.80;;;;;;5069846;28;20045;-38
2021/03/18 08:39:10;;;;;;;1.10;0.95;;;23.50;42.70;;;;;;5069832;28;20048;-39
2021/03/18 08:41:44;;;;;;;1.77;1.33;;;23.50;42.70;;;;;;5070695;28;20110;-38
2021/03/18 08:44:31;;;;;;;1.23;1.00;;;23.50;42.70;;;;;;5070047;28;20044;-38
2021/03/18 08:47:06;;;;;;;1.48;1.10;;;23.50;42.70;;;;;;5071140;28;20060;-38
2021/03/18 08:49:38;;;;;;;1.52;1.23;;;23.50;42.70;;;;;;5070006;28;20102;-38
2021/03/18 08:52:10;;;;;;;2.17;1.27;;;23.50;42.70;;;;;;5070004;28;20450;-38
2021/03/18 08:54:37;;;;;;;1.13;1.03;;;23.50;42.70;;;;;;5070693;28;20048;-38
2021/03/18 08:57:09;;;;;;;1.60;1.00;;;23.50;42.70;;;;;;5070795;28;20052;-38
2021/03/18 08:59:38;;;;;;;1.63;1.08;;;23.50;42.60;;;;;;5069317;28;20048;-39
2021/03/18 09:02:08;;;;;;;1.02;0.90;;;23.50;42.60;;;;;;5070720;28;20047;-38
2021/03/18 09:04:42;;;;;;;1.50;1.10;;;23.50;42.60;;;;;;5072637;28;20052;-39
2021/03/18 09:07:10;;;;;;;1.60;1.20;;;23.50;42.60;;;;;;5073280;28;20070;-37
2021/03/18 09:09:38;;;;;;;1.50;1.00;;;23.50;42.60;;;;;;5074928;28;20048;-37
2021/03/18 09:12:07;;;;;;;1.52;1.10;;;23.50;42.60;;;;;;5074880;28;20044;-37
2021/03/18 09:14:35;;;;;;;1.73;1.27;;;23.50;42.60;;;;;;5074505;28;20048;-37
2021/03/18 09:17:07;;;;;;;1.10;0.98;;;23.50;42.60;;;;;;5074198;28;20053;-37
2021/03/18 09:19:42;;;;;;;1.20;1.10;;;23.50;42.60;;;;;;5073328;28;20048;-37
2021/03/18 09:22:14;;;;;;;1.30;1.20;;;23.50;42.60;;;;;;5072522;28;20415;-39
2021/03/18 09:24:44;;;;;;;1.83;1.00;;;23.50;42.60;;;;;;5073087;28;20135;-38
2021/03/18 09:27:13;;;;;;;1.35;1.17;;;23.50;42.60;;;;;;5072787;28;20052;-37
2021/03/18 09:29:42;;;;;;;1.50;0.98;;;23.60;42.70;;;;;;5073749;28;20074;-37
2021/03/18 09:32:13;;;;;;;1.08;0.90;;;23.60;42.70;;;;;;5073137;28;20045;-37
2021/03/18 09:34:46;;;;;;;1.27;1.08;;;23.50;42.60;;;;;;5073831;28;20048;-38
2021/03/18 09:37:35;;;;;;;1.15;1.00;;;23.60;42.60;;;;;;5073792;28;20051;-38
2021/03/18 09:40:04;;;;;;;1.42;1.10;;;23.60;42.60;;;;;;5072948;28;20127;-38
2021/03/18 09:42:31;;;;;;;1.17;1.08;;;23.60;42.60;;;;;;5072350;28;20430;-37
2021/03/18 09:44:59;;;;;;;1.52;1.10;;;23.60;42.60;;;;;;5072939;28;20132;-37
2021/03/18 09:47:26;;;;;;;1.33;1.00;;;23.60;42.60;;;;;;5075111;28;20054;-38
2021/03/18 09:49:54;;;;;;;1.77;1.10;;;23.60;42.60;;;;;;5073795;28;20090;-38
2021/03/18 09:52:29;;;;;;;2.28;1.33;;;23.60;42.60;;;;;;5072746;28;20072;-37
2021/03/18 09:54:58;;;;;;;1.10;1.00;;;23.60;42.60;;;;;;5073616;28;20106;-38
2021/03/18 09:57:30;;;;;;;1.58;1.13;;;23.60;42.60;;;;;;5073416;28;20053;-37
2021/03/18 09:59:57;;;;;;;1.40;1.13;;;23.60;42.60;;;;;;5072415;28;20416;-37
2021/03/18 10:02:29;;;;;;;1.58;1.08;;;23.60;42.60;;;;;;5073616;28;20048;-38
2021/03/18 10:04:56;;;;;;;1.77;1.10;;;23.60;42.60;;;;;;5072645;28;20045;-38
2021/03/18 10:07:33;;;;;;;2.25;0.90;;;23.60;42.60;;;;;;5074510;28;20044;-37
2021/03/18 10:10:00;;;;;;;1.17;1.00;;;23.60;42.60;;;;;;5072029;28;20215;-38
2021/03/18 10:12:29;;;;;;;1.13;0.88;;;23.60;42.60;;;;;;5074910;28;20048;-38
2021/03/18 10:15:10;;;;;;;1.17;1.08;;;23.60;42.60;;;;;;5071348;28;20048;-38
2021/03/18 10:17:41;;;;;;;1.55;1.10;;;23.60;42.60;;;;;;5073320;28;20468;-38
2021/03/18 10:20:33;;;;;;;1.48;1.17;;;23.60;42.60;;;;;;5072936;28;20048;-38
2021/03/18 10:23:14;;;;;;;1.45;1.10;;;23.60;42.60;;;;;;5074753;28;20457;-37
2021/03/18 10:25:41;;;;;;;1.33;1.20;;;23.60;42.60;;;;;;5073562;28;20041;-37
2021/03/18 10:28:11;;;;;;;1.15;1.05;;;23.60;42.60;;;;;;5073033;28;20044;-37
2021/03/18 10:30:46;;;;;;;1.23;0.93;;;23.60;42.60;;;;;;5072350;28;20040;-37
2021/03/18 10:33:17;;;;;;;1.42;1.05;;;23.60;42.70;;;;;;5073304;28;20056;-37
2021/03/18 10:35:57;;;;;;;1.25;1.10;;;23.50;42.60;;;;;;5072777;28;20048;-37
2021/03/18 10:38:36;;;;;;;1.70;1.05;;;23.60;42.60;;;;;;5072223;28;20182;-37
2021/03/18 10:41:09;;;;;;;1.52;1.13;;;23.60;42.60;;;;;;5071376;28;20052;-37
2021/03/18 10:43:54;;;;;;;1.10;0.90;;;23.50;42.60;;;;;;5072812;28;20052;-38
2021/03/18 10:46:36;;;;;;;1.42;1.00;;;23.60;42.60;;;;;;5073074;28;20408;-37
2021/03/18 10:49:09;;;;;;;1.00;0.85;;;23.60;42.60;;;;;;5070938;28;20512;-38
2021/03/18 10:51:46;;;;;;;1.23;1.10;;;23.50;42.60;;;;;;5070963;28;20520;-38
2021/03/18 10:54:22;;;;;;;1.63;0.93;;;23.60;42.60;;;;;;5072466;28;20066;-38
2021/03/18 10:56:50;;;;;;;1.00;0.95;;;23.60;42.70;;;;;;5072403;28;20048;-37
2021/03/18 10:59:20;;;;;;;1.13;1.02;;;23.60;42.60;;;;;;5072504;28;20131;-38
2021/03/18 11:01:47;;;;;;;2.00;1.33;;;23.60;42.70;;;;;;5071481;28;20868;-38
2021/03/18 11:04:15;;;;;;;1.33;1.08;;;23.60;42.70;;;;;;5071314;28;20041;-42
2021/03/18 11:06:50;;;;;;;1.00;0.90;;;23.60;42.60;;;;;;5070616;28;20040;-38
2021/03/18 11:09:20;;;;;;;1.23;1.00;;;23.60;42.60;;;;;;5070912;28;20072;-38
2021/03/18 11:12:00;;;;;;;1.17;1.00;;;23.60;42.60;;;;;;5069868;28;20530;-39
2021/03/18 11:14:28;;;;;;;1.30;0.95;;;23.60;42.60;;;;;;5070160;28;20040;-38
2021/03/18 11:17:07;;;;;;;1.25;1.00;;;23.60;42.60;;;;;;5070941;28;20058;-38
2021/03/18 11:19:34;;;;;;;1.00;0.90;;;23.60;42.60;;;;;;5071243;28;20060;-38
2021/03/18 11:22:06;;;;;;;1.05;0.90;;;23.60;42.60;;;;;;5071954;28;21278;-38
2021/03/18 11:24:33;;;;;;;1.58;0.90;;;23.60;42.60;;;;;;5072260;28;20045;-38
2021/03/18 11:27:03;;;;;;;1.58;1.00;;;23.60;42.60;;;;;;5069945;28;20048;-38
2021/03/18 11:29:35;;;;;;;1.20;0.80;;;23.60;42.60;;;;;;5071840;28;20051;-39
2021/03/18 11:32:07;;;;;;;1.27;1.00;;;23.60;42.60;;;;;;5070715;28;20063;-38
2021/03/18 11:34:40;;;;;;;1.63;1.02;;;23.70;42.60;;;;;;5070537;28;20128;-38
2021/03/18 11:37:10;;;;;;;1.43;1.10;;;23.70;42.60;;;;;;5071713;28;20048;-38
2021/03/18 11:39:37;;;;;;;1.13;0.98;;;23.70;42.60;;;;;;5069258;28;20056;-39
2021/03/18 11:42:05;;;;;;;1.30;1.20;;;23.70;42.50;;;;;;5069115;28;20051;-38
2021/03/18 11:44:32;;;;;;;1.10;1.00;;;23.70;42.60;;;;;;5070255;28;20052;-40
2021/03/18 11:47:04;;;;;;;1.00;0.80;;;23.70;42.60;;;;;;5070623;28;20040;-38
2021/03/18 11:49:32;;;;;;;1.33;1.13;;;23.70;42.60;;;;;;5070141;28;20040;-38
2021/03/18 11:52:00;;;;;;;1.65;1.40;;;23.70;42.60;;;;;;5072008;28;20159;-38
2021/03/18 11:54:30;;;;;;;1.63;1.20;;;23.70;42.60;;;;;;5070875;28;20087;-38
2021/03/18 11:56:57;;;;;;;1.27;1.10;;;23.70;42.60;;;;;;5069897;28;20048;-38
2021/03/18 11:59:24;;;;;;;1.20;1.10;;;23.70;42.60;;;;;;5070832;28;20420;-39
2021/03/18 12:01:52;;;;;;;1.20;0.93;;;23.70;42.60;;;;;;5070067;28;20048;-38
2021/03/18 12:04:20;;;;;;;1.40;1.08;;;23.70;42.60;;;;;;5069062;28;20072;-38
2021/03/18 12:06:47;;;;;;;1.60;1.08;;;23.60;42.60;;;;;;5071990;28;20449;-38
2021/03/18 12:09:14;;;;;;;1.10;1.00;;;23.70;42.80;;;;;;5070385;28;20138;-38
2021/03/18 12:11:42;;;;;;;1.67;1.20;;;23.70;42.90;;;;;;5068496;28;20571;-38
2021/03/18 12:14:09;;;;;;;1.17;0.88;;;23.60;43.00;;;;;;5070515;28;20078;-38
2021/03/18 12:16:35;;;;;;;1.10;0.82;;;23.60;43.00;;;;;;5070306;28;20396;-38
2021/03/18 12:19:03;;;;;;;1.13;1.00;;;23.60;43.10;;;;;;5071463;28;20101;-38
2021/03/18 12:21:33;;;;;;;1.00;0.90;;;23.70;43.20;;;;;;5071718;28;20050;-38
2021/03/18 12:24:00;;;;;;;1.17;1.00;;;23.70;43.30;;;;;;5071567;28;20048;-38
2021/03/18 12:26:26;;;;;;;1.00;0.88;;;23.70;43.40;;;;;;5071295;28;20045;-38
2021/03/18 12:28:55;;;;;;;1.25;1.02;;;23.70;43.40;;;;;;5071594;28;20096;-38
2021/03/18 12:31:22;;;;;;;2.03;1.20;;;23.70;43.40;;;;;;5069769;28;20408;-38
2021/03/18 12:33:49;;;;;;;1.50;1.10;;;23.70;43.40;;;;;;5070185;28;20412;-38
2021/03/18 12:36:17;;;;;;;1.33;1.00;;;23.70;43.50;;;;;;5071017;28;20083;-38
2021/03/18 12:38:44;;;;;;;1.13;1.00;;;23.70;43.50;;;;;;5070844;28;20049;-38
2021/03/18 12:41:27;;;;;;;2.33;1.20;;;23.70;43.50;;;;;;5075325;28;20067;-38
2021/03/18 12:43:54;;;;;;;1.30;1.13;;;23.70;43.50;;;;;;5075169;28;20287;-40
2021/03/18 12:46:21;;;;;;;1.90;1.00;;;23.70;43.50;;;;;;5075129;28;20044;-38
2021/03/18 12:48:47;;;;;;;1.58;1.10;;;23.70;43.60;;;;;;5074936;28;20551;-38
2021/03/18 12:51:14;;;;;;;1.00;0.90;;;23.70;43.60;;;;;;5073722;28;20051;-39
2021/03/18 12:53:41;;;;;;;1.00;0.90;;;23.70;43.60;;;;;;5075117;28;20068;-38
2021/03/18 12:56:08;;;;;;;1.05;0.95;;;23.70;43.60;;;;;;5074953;28;20553;-38
2021/03/18 12:58:34;;;;;;;1.25;0.85;;;23.70;43.60;;;;;;5073714;28;20084;-38
2021/03/18 13:01:01;;;;;;;1.63;1.25;;;23.70;43.60;;;;;;5074663;28;20057;-38
2021/03/18 13:03:31;;;;;;;1.50;1.30;;;23.70;43.60;;;;;;5073270;28;20044;-39
2021/03/18 13:05:58;;;;;;;1.20;1.10;;;23.70;43.60;;;;;;5075679;28;20045;-38
2021/03/18 13:08:24;;;;;;;2.38;1.13;;;23.70;43.60;;;;;;5072935;28;20048;-38